Terminal Aerodrome Forecast
Issued by NWS New Orleans/Baton Rouge, LA

Home | Current Version | Previous Version | Text Only | Print | Product List | Glossary On
Versions: 1 2 3 4 5 6 7 8 9 10 11 12
000
FTUS44 KLIX 231730
TAFNEW
TAF
KNEW 231730Z 2318/2418 07011KT P6SM FEW050
     FM232100 09009KT P6SM FEW050 FEW110
     FM240200 11005KT P6SM FEW050 FEW250=

USA.gov is the U.S. government's official web portal to all federal, state and local government web resources and services.